Kansas City, Missouri
Traffic Map
Current Weather Conditions
Kansas City, Missouri
Overcast
Overcast
50°
Feels Like: 50°
Wind Chill: 50° Ceiling: 3500
Heat Index: 50° Visibility: 10mi
Dew Point: 45° Wind: 6mph
Humidity: 83% Direction: 300° (WNW)
Pressure: 30.13in Gusts: 0mph
Raw Report DataKMKC 020754Z 30005KT 10SM FEW015 OVC035 10/07 A3013 RMK AO2 SLP201 T01000072
Traffic Incident Summary
Active as of:
Severity:
Category:
InformationThere was an issue retrieving the traffic information for this location. Please try a different location or try again shortly.
Advertisements
Track Severe Weather on mobile